sensor_id;sensor_type;location;lat;lon;timestamp;temperature;humidity
49765;DHT22;35657;51.204;-4.130;2024-01-06T00:02:08;8.20;99.90
49765;DHT22;35657;51.204;-4.130;2024-01-06T00:04:34;8.20;99.90
49765;DHT22;35657;51.204;-4.130;2024-01-06T00:06:59;8.20;99.90
49765;DHT22;35657;51.204;-4.130;2024-01-06T00:09:25;8.20;99.90
49765;DHT22;35657;51.204;-4.130;2024-01-06T00:11:51;8.20;99.90
49765;DHT22;35657;51.204;-4.130;2024-01-06T00:14:17;8.20;99.90
49765;DHT22;35657;51.204;-4.130;2024-01-06T00:16:42;8.20;99.90
49765;DHT22;35657;51.204;-4.130;2024-01-06T00:19:08;8.20;99.90
49765;DHT22;35657;51.204;-4.130;2024-01-06T00:21:34;8.10;99.90
49765;DHT22;35657;51.204;-4.130;2024-01-06T00:23:59;8.10;99.90
49765;DHT22;35657;51.204;-4.130;2024-01-06T00:26:25;8.10;99.90
49765;DHT22;35657;51.204;-4.130;2024-01-06T00:28:51;8.10;99.90
49765;DHT22;35657;51.204;-4.130;2024-01-06T00:31:17;8.10;99.90
49765;DHT22;35657;51.204;-4.130;2024-01-06T00:33:43;8.20;99.90
49765;DHT22;35657;51.204;-4.130;2024-01-06T00:36:09;8.20;99.90
49765;DHT22;35657;51.204;-4.130;2024-01-06T00:38:35;8.20;99.90
49765;DHT22;35657;51.204;-4.130;2024-01-06T00:41:04;8.20;99.90
49765;DHT22;35657;51.204;-4.130;2024-01-06T00:43:29;8.20;99.90
49765;DHT22;35657;51.204;-4.130;2024-01-06T00:45:55;8.20;99.90
49765;DHT22;35657;51.204;-4.130;2024-01-06T00:48:21;8.20;99.90
49765;DHT22;35657;51.204;-4.130;2024-01-06T00:50:47;8.20;99.90
49765;DHT22;35657;51.204;-4.130;2024-01-06T00:53:12;8.20;99.90
49765;DHT22;35657;51.204;-4.130;2024-01-06T00:55:38;8.20;99.90
49765;DHT22;35657;51.204;-4.130;2024-01-06T00:58:04;8.20;99.90
49765;DHT22;35657;51.204;-4.130;2024-01-06T01:00:29;8.20;99.90
49765;DHT22;35657;51.204;-4.130;2024-01-06T01:02:55;8.20;99.90
49765;DHT22;35657;51.204;-4.130;2024-01-06T01:05:21;8.20;99.90
49765;DHT22;35657;51.204;-4.130;2024-01-06T01:07:46;8.20;99.90
49765;DHT22;35657;51.204;-4.130;2024-01-06T01:10:12;8.20;99.90
49765;DHT22;35657;51.204;-4.130;2024-01-06T01:12:38;8.10;99.90
49765;DHT22;35657;51.204;-4.130;2024-01-06T01:15:05;8.20;99.90
49765;DHT22;35657;51.204;-4.130;2024-01-06T01:17:30;8.20;99.90
49765;DHT22;35657;51.204;-4.130;2024-01-06T01:19:56;8.20;99.90
49765;DHT22;35657;51.204;-4.130;2024-01-06T01:22:22;8.20;99.90
49765;DHT22;35657;51.204;-4.130;2024-01-06T01:24:47;8.20;99.90
49765;DHT22;35657;51.204;-4.130;2024-01-06T01:27:13;8.20;99.90
49765;DHT22;35657;51.204;-4.130;2024-01-06T01:29:39;8.20;99.90
49765;DHT22;35657;51.204;-4.130;2024-01-06T01:32:05;8.20;99.90
49765;DHT22;35657;51.204;-4.130;2024-01-06T01:34:31;8.20;99.90
49765;DHT22;35657;51.204;-4.130;2024-01-06T01:36:57;8.20;99.90
49765;DHT22;35657;51.204;-4.130;2024-01-06T01:39:23;8.20;99.90
49765;DHT22;35657;51.204;-4.130;2024-01-06T01:41:49;8.20;99.90
49765;DHT22;35657;51.204;-4.130;2024-01-06T01:44:15;8.20;99.90
49765;DHT22;35657;51.204;-4.130;2024-01-06T01:46:41;8.20;99.90
49765;DHT22;35657;51.204;-4.130;2024-01-06T01:49:07;8.20;99.90
49765;DHT22;35657;51.204;-4.130;2024-01-06T01:51:34;8.20;99.90
49765;DHT22;35657;51.204;-4.130;2024-01-06T01:54:05;8.20;99.90
49765;DHT22;35657;51.204;-4.130;2024-01-06T01:56:34;8.20;99.90
49765;DHT22;35657;51.204;-4.130;2024-01-06T01:59:09;8.20;99.90
49765;DHT22;35657;51.204;-4.130;2024-01-06T02:01:36;8.20;99.90
49765;DHT22;35657;51.204;-4.130;2024-01-06T02:04:02;8.20;99.90
49765;DHT22;35657;51.204;-4.130;2024-01-06T02:06:28;8.30;99.90
49765;DHT22;35657;51.204;-4.130;2024-01-06T02:08:53;8.20;99.90
49765;DHT22;35657;51.204;-4.130;2024-01-06T02:11:19;8.20;99.90
49765;DHT22;35657;51.204;-4.130;2024-01-06T02:13:45;8.30;99.90
49765;DHT22;35657;51.204;-4.130;2024-01-06T02:16:11;8.30;99.90
49765;DHT22;35657;51.204;-4.130;2024-01-06T02:18:36;8.30;99.90
49765;DHT22;35657;51.204;-4.130;2024-01-06T02:21:02;8.30;99.90
49765;DHT22;35657;51.204;-4.130;2024-01-06T02:23:29;8.30;99.90
49765;DHT22;35657;51.204;-4.130;2024-01-06T02:25:56;8.30;99.90
49765;DHT22;35657;51.204;-4.130;2024-01-06T02:28:22;8.30;99.90
49765;DHT22;35657;51.204;-4.130;2024-01-06T02:30:48;8.30;99.90
49765;DHT22;35657;51.204;-4.130;2024-01-06T02:33:14;8.20;99.90
49765;DHT22;35657;51.204;-4.130;2024-01-06T02:35:40;8.30;99.90
49765;DHT22;35657;51.204;-4.130;2024-01-06T02:38:06;8.30;99.90
49765;DHT22;35657;51.204;-4.130;2024-01-06T02:40:32;8.30;99.90
49765;DHT22;35657;51.204;-4.130;2024-01-06T02:42:58;8.20;99.90
49765;DHT22;35657;51.204;-4.130;2024-01-06T02:45:24;8.30;99.90
49765;DHT22;35657;51.204;-4.130;2024-01-06T02:47:50;8.20;99.90
49765;DHT22;35657;51.204;-4.130;2024-01-06T02:50:16;8.20;99.90
49765;DHT22;35657;51.204;-4.130;2024-01-06T02:52:43;8.20;99.90
49765;DHT22;35657;51.204;-4.130;2024-01-06T02:55:09;8.20;99.90
49765;DHT22;35657;51.204;-4.130;2024-01-06T02:57:34;8.20;99.90
49765;DHT22;35657;51.204;-4.130;2024-01-06T03:00:01;8.20;99.90
49765;DHT22;35657;51.204;-4.130;2024-01-06T03:02:26;8.20;99.90
49765;DHT22;35657;51.204;-4.130;2024-01-06T03:04:52;8.20;99.90
49765;DHT22;35657;51.204;-4.130;2024-01-06T03:07:18;8.20;99.90
49765;DHT22;35657;51.204;-4.130;2024-01-06T03:09:44;8.20;99.90
49765;DHT22;35657;51.204;-4.130;2024-01-06T03:12:09;8.20;99.90
49765;DHT22;35657;51.204;-4.130;2024-01-06T03:14:35;8.20;99.90
49765;DHT22;35657;51.204;-4.130;2024-01-06T03:17:01;8.20;99.90
49765;DHT22;35657;51.204;-4.130;2024-01-06T03:19:28;8.20;99.90
49765;DHT22;35657;51.204;-4.130;2024-01-06T03:21:54;8.20;99.90
49765;DHT22;35657;51.204;-4.130;2024-01-06T03:24:21;8.20;99.90
49765;DHT22;35657;51.204;-4.130;2024-01-06T03:26:47;8.30;99.90
49765;DHT22;35657;51.204;-4.130;2024-01-06T03:29:12;8.30;99.90
49765;DHT22;35657;51.204;-4.130;2024-01-06T03:31:44;8.20;99.90
49765;DHT22;35657;51.204;-4.130;2024-01-06T03:34:11;8.20;99.90
49765;DHT22;35657;51.204;-4.130;2024-01-06T03:36:37;8.20;99.90
49765;DHT22;35657;51.204;-4.130;2024-01-06T03:39:03;8.20;99.90
49765;DHT22;35657;51.204;-4.130;2024-01-06T03:41:29;8.20;99.90
49765;DHT22;35657;51.204;-4.130;2024-01-06T03:43:55;8.20;99.90
49765;DHT22;35657;51.204;-4.130;2024-01-06T03:46:22;8.20;99.90
49765;DHT22;35657;51.204;-4.130;2024-01-06T03:48:47;8.20;99.90
49765;DHT22;35657;51.204;-4.130;2024-01-06T03:51:13;8.30;99.90
49765;DHT22;35657;51.204;-4.130;2024-01-06T03:53:39;8.30;99.90
49765;DHT22;35657;51.204;-4.130;2024-01-06T03:56:06;8.20;99.90
49765;DHT22;35657;51.204;-4.130;2024-01-06T03:58:32;8.30;99.90
49765;DHT22;35657;51.204;-4.130;2024-01-06T04:00:58;8.20;99.90
49765;DHT22;35657;51.204;-4.130;2024-01-06T04:03:23;8.20;99.90
49765;DHT22;35657;51.204;-4.130;2024-01-06T04:05:49;8.20;99.90
49765;DHT22;35657;51.204;-4.130;2024-01-06T04:08:15;8.20;99.90
49765;DHT22;35657;51.204;-4.130;2024-01-06T04:10:40;8.20;99.90
49765;DHT22;35657;51.204;-4.130;2024-01-06T04:13:07;8.20;99.90
49765;DHT22;35657;51.204;-4.130;2024-01-06T04:15:33;8.20;99.90
49765;DHT22;35657;51.204;-4.130;2024-01-06T04:18:02;8.20;99.90
49765;DHT22;35657;51.204;-4.130;2024-01-06T04:20:29;8.20;99.90
49765;DHT22;35657;51.204;-4.130;2024-01-06T04:22:54;8.20;99.90
49765;DHT22;35657;51.204;-4.130;2024-01-06T04:25:20;8.20;99.90
49765;DHT22;35657;51.204;-4.130;2024-01-06T04:27:46;8.30;99.90
49765;DHT22;35657;51.204;-4.130;2024-01-06T04:30:14;8.20;99.90
49765;DHT22;35657;51.204;-4.130;2024-01-06T04:32:40;8.20;99.90
49765;DHT22;35657;51.204;-4.130;2024-01-06T04:35:06;8.20;99.90
49765;DHT22;35657;51.204;-4.130;2024-01-06T04:37:32;8.20;99.90
49765;DHT22;35657;51.204;-4.130;2024-01-06T04:39:58;8.20;99.90
49765;DHT22;35657;51.204;-4.130;2024-01-06T04:42:24;8.20;99.90
49765;DHT22;35657;51.204;-4.130;2024-01-06T04:44:50;8.20;99.90
49765;DHT22;35657;51.204;-4.130;2024-01-06T04:47:16;8.10;99.90
49765;DHT22;35657;51.204;-4.130;2024-01-06T04:49:42;8.10;99.90
49765;DHT22;35657;51.204;-4.130;2024-01-06T04:52:08;8.20;99.90
49765;DHT22;35657;51.204;-4.130;2024-01-06T04:54:33;8.20;99.90
49765;DHT22;35657;51.204;-4.130;2024-01-06T04:56:59;8.20;99.90
49765;DHT22;35657;51.204;-4.130;2024-01-06T04:59:25;8.20;99.90
49765;DHT22;35657;51.204;-4.130;2024-01-06T05:01:51;8.20;99.90
49765;DHT22;35657;51.204;-4.130;2024-01-06T05:04:18;8.20;99.90
49765;DHT22;35657;51.204;-4.130;2024-01-06T05:06:44;8.20;99.90
49765;DHT22;35657;51.204;-4.130;2024-01-06T05:09:09;8.20;99.90
49765;DHT22;35657;51.204;-4.130;2024-01-06T05:11:35;8.20;99.90
49765;DHT22;35657;51.204;-4.130;2024-01-06T05:14:01;8.20;99.90
49765;DHT22;35657;51.204;-4.130;2024-01-06T05:16:27;8.20;99.90
49765;DHT22;35657;51.204;-4.130;2024-01-06T05:18:53;8.20;99.90
49765;DHT22;35657;51.204;-4.130;2024-01-06T05:21:19;8.20;99.90
49765;DHT22;35657;51.204;-4.130;2024-01-06T05:23:45;8.20;99.90
49765;DHT22;35657;51.204;-4.130;2024-01-06T05:26:11;8.20;99.90
49765;DHT22;35657;51.204;-4.130;2024-01-06T05:28:38;8.10;99.90
49765;DHT22;35657;51.204;-4.130;2024-01-06T05:31:04;8.10;99.90
49765;DHT22;35657;51.204;-4.130;2024-01-06T05:33:30;8.20;99.90
49765;DHT22;35657;51.204;-4.130;2024-01-06T05:35:55;8.20;99.90
49765;DHT22;35657;51.204;-4.130;2024-01-06T05:38:21;8.10;99.90
49765;DHT22;35657;51.204;-4.130;2024-01-06T05:40:47;8.20;99.90
49765;DHT22;35657;51.204;-4.130;2024-01-06T05:43:13;8.20;99.90
49765;DHT22;35657;51.204;-4.130;2024-01-06T05:45:39;8.20;99.90
49765;DHT22;35657;51.204;-4.130;2024-01-06T05:48:10;8.20;99.90
49765;DHT22;35657;51.204;-4.130;2024-01-06T05:50:37;8.20;99.90
49765;DHT22;35657;51.204;-4.130;2024-01-06T05:53:03;8.20;99.90
49765;DHT22;35657;51.204;-4.130;2024-01-06T05:55:29;8.20;99.90
49765;DHT22;35657;51.204;-4.130;2024-01-06T05:57:54;8.20;99.90
49765;DHT22;35657;51.204;-4.130;2024-01-06T06:00:20;8.20;99.90
49765;DHT22;35657;51.204;-4.130;2024-01-06T06:02:46;8.20;99.90
49765;DHT22;35657;51.204;-4.130;2024-01-06T06:05:12;8.20;99.90
49765;DHT22;35657;51.204;-4.130;2024-01-06T06:07:39;8.20;99.90
49765;DHT22;35657;51.204;-4.130;2024-01-06T06:10:09;8.30;99.90
49765;DHT22;35657;51.204;-4.130;2024-01-06T06:12:35;8.30;99.90
49765;DHT22;35657;51.204;-4.130;2024-01-06T06:15:02;8.20;99.90
49765;DHT22;35657;51.204;-4.130;2024-01-06T06:17:30;8.20;99.90
49765;DHT22;35657;51.204;-4.130;2024-01-06T06:19:57;8.20;99.90
49765;DHT22;35657;51.204;-4.130;2024-01-06T06:22:23;8.20;99.90
49765;DHT22;35657;51.204;-4.130;2024-01-06T06:24:49;8.20;99.90
49765;DHT22;35657;51.204;-4.130;2024-01-06T06:27:15;8.20;99.90
49765;DHT22;35657;51.204;-4.130;2024-01-06T06:29:40;8.20;99.90
49765;DHT22;35657;51.204;-4.130;2024-01-06T06:32:06;8.20;99.90
49765;DHT22;35657;51.204;-4.130;2024-01-06T06:34:32;8.10;99.90
49765;DHT22;35657;51.204;-4.130;2024-01-06T06:36:57;8.10;99.90
49765;DHT22;35657;51.204;-4.130;2024-01-06T06:39:24;8.20;99.90
49765;DHT22;35657;51.204;-4.130;2024-01-06T06:41:49;8.20;99.90
49765;DHT22;35657;51.204;-4.130;2024-01-06T06:44:15;8.20;99.90
49765;DHT22;35657;51.204;-4.130;2024-01-06T06:46:41;8.20;99.90
49765;DHT22;35657;51.204;-4.130;2024-01-06T06:49:07;8.20;99.90
49765;DHT22;35657;51.204;-4.130;2024-01-06T06:51:33;8.20;99.90
49765;DHT22;35657;51.204;-4.130;2024-01-06T06:53:58;8.20;99.90
49765;DHT22;35657;51.204;-4.130;2024-01-06T06:56:24;8.20;99.90
49765;DHT22;35657;51.204;-4.130;2024-01-06T06:58:50;8.10;99.90
49765;DHT22;35657;51.204;-4.130;2024-01-06T07:01:16;8.10;99.90
49765;DHT22;35657;51.204;-4.130;2024-01-06T07:03:42;8.10;99.90
49765;DHT22;35657;51.204;-4.130;2024-01-06T07:06:08;8.10;99.90
49765;DHT22;35657;51.204;-4.130;2024-01-06T07:08:34;8.10;99.90
49765;DHT22;35657;51.204;-4.130;2024-01-06T07:11:00;8.10;99.90
49765;DHT22;35657;51.204;-4.130;2024-01-06T07:13:25;8.10;99.90
49765;DHT22;35657;51.204;-4.130;2024-01-06T07:15:52;8.10;99.90
49765;DHT22;35657;51.204;-4.130;2024-01-06T07:18:17;8.10;99.90
49765;DHT22;35657;51.204;-4.130;2024-01-06T07:20:48;8.10;99.90
49765;DHT22;35657;51.204;-4.130;2024-01-06T07:23:14;8.10;99.90
49765;DHT22;35657;51.204;-4.130;2024-01-06T07:25:40;8.10;99.90
49765;DHT22;35657;51.204;-4.130;2024-01-06T07:28:06;8.10;99.90
49765;DHT22;35657;51.204;-4.130;2024-01-06T07:30:33;8.10;99.90
49765;DHT22;35657;51.204;-4.130;2024-01-06T07:32:59;8.10;99.90
49765;DHT22;35657;51.204;-4.130;2024-01-06T07:35:26;8.10;99.90
49765;DHT22;35657;51.204;-4.130;2024-01-06T07:37:51;8.10;99.90
49765;DHT22;35657;51.204;-4.130;2024-01-06T07:40:18;8.10;99.90
49765;DHT22;35657;51.204;-4.130;2024-01-06T07:42:44;8.10;99.90
49765;DHT22;35657;51.204;-4.130;2024-01-06T07:45:10;8.10;99.90
49765;DHT22;35657;51.204;-4.130;2024-01-06T07:47:36;8.10;99.90
49765;DHT22;35657;51.204;-4.130;2024-01-06T07:50:02;8.10;99.90
49765;DHT22;35657;51.204;-4.130;2024-01-06T07:52:28;8.00;99.90
49765;DHT22;35657;51.204;-4.130;2024-01-06T07:54:54;8.00;99.90
49765;DHT22;35657;51.204;-4.130;2024-01-06T07:57:20;8.00;99.90
49765;DHT22;35657;51.204;-4.130;2024-01-06T07:59:46;8.10;99.90
49765;DHT22;35657;51.204;-4.130;2024-01-06T08:02:12;8.10;99.90
49765;DHT22;35657;51.204;-4.130;2024-01-06T08:04:37;8.10;99.90
49765;DHT22;35657;51.204;-4.130;2024-01-06T08:07:03;8.10;99.90
49765;DHT22;35657;51.204;-4.130;2024-01-06T08:09:29;8.10;99.90
49765;DHT22;35657;51.204;-4.130;2024-01-06T08:11:55;8.00;99.90
49765;DHT22;35657;51.204;-4.130;2024-01-06T08:14:20;8.00;99.90
49765;DHT22;35657;51.204;-4.130;2024-01-06T08:16:46;8.00;99.90
49765;DHT22;35657;51.204;-4.130;2024-01-06T08:19:12;7.90;99.90
49765;DHT22;35657;51.204;-4.130;2024-01-06T08:21:38;7.80;99.90
49765;DHT22;35657;51.204;-4.130;2024-01-06T08:24:04;7.90;99.90
49765;DHT22;35657;51.204;-4.130;2024-01-06T08:26:30;7.90;99.90
49765;DHT22;35657;51.204;-4.130;2024-01-06T08:28:56;7.80;99.90
49765;DHT22;35657;51.204;-4.130;2024-01-06T08:31:22;7.80;99.90
49765;DHT22;35657;51.204;-4.130;2024-01-06T08:33:48;7.90;99.90
49765;DHT22;35657;51.204;-4.130;2024-01-06T08:36:14;7.90;99.90
49765;DHT22;35657;51.204;-4.130;2024-01-06T08:38:40;7.90;99.90
49765;DHT22;35657;51.204;-4.130;2024-01-06T08:41:05;7.90;99.90
49765;DHT22;35657;51.204;-4.130;2024-01-06T08:43:31;7.90;99.90
49765;DHT22;35657;51.204;-4.130;2024-01-06T08:45:57;7.90;99.90
49765;DHT22;35657;51.204;-4.130;2024-01-06T08:48:22;8.00;99.90
49765;DHT22;35657;51.204;-4.130;2024-01-06T08:50:48;8.00;99.90
49765;DHT22;35657;51.204;-4.130;2024-01-06T08:53:14;8.00;99.90
49765;DHT22;35657;51.204;-4.130;2024-01-06T08:55:41;8.00;99.90
49765;DHT22;35657;51.204;-4.130;2024-01-06T08:58:06;8.00;99.90
49765;DHT22;35657;51.204;-4.130;2024-01-06T09:00:32;8.00;99.90
49765;DHT22;35657;51.204;-4.130;2024-01-06T09:02:58;8.00;99.90
49765;DHT22;35657;51.204;-4.130;2024-01-06T09:05:24;8.10;99.90
49765;DHT22;35657;51.204;-4.130;2024-01-06T09:07:49;8.10;99.90
49765;DHT22;35657;51.204;-4.130;2024-01-06T09:10:18;8.10;99.90
49765;DHT22;35657;51.204;-4.130;2024-01-06T09:12:44;8.10;99.90
49765;DHT22;35657;51.204;-4.130;2024-01-06T09:15:10;8.10;99.90
49765;DHT22;35657;51.204;-4.130;2024-01-06T09:17:36;8.10;99.90
49765;DHT22;35657;51.204;-4.130;2024-01-06T09:20:02;8.10;99.90
49765;DHT22;35657;51.204;-4.130;2024-01-06T09:22:28;8.10;99.90
49765;DHT22;35657;51.204;-4.130;2024-01-06T09:24:54;8.10;99.90
49765;DHT22;35657;51.204;-4.130;2024-01-06T09:27:20;8.10;99.90
49765;DHT22;35657;51.204;-4.130;2024-01-06T09:29:46;8.10;99.90
49765;DHT22;35657;51.204;-4.130;2024-01-06T09:32:12;8.10;99.90
49765;DHT22;35657;51.204;-4.130;2024-01-06T09:34:39;8.10;99.90
49765;DHT22;35657;51.204;-4.130;2024-01-06T09:37:04;8.20;99.90
49765;DHT22;35657;51.204;-4.130;2024-01-06T09:39:30;8.10;99.90
49765;DHT22;35657;51.204;-4.130;2024-01-06T09:41:58;8.10;99.90
49765;DHT22;35657;51.204;-4.130;2024-01-06T09:44:24;8.20;99.90
49765;DHT22;35657;51.204;-4.130;2024-01-06T09:46:50;8.20;99.90
49765;DHT22;35657;51.204;-4.130;2024-01-06T09:49:24;8.20;99.90
49765;DHT22;35657;51.204;-4.130;2024-01-06T09:51:53;8.20;99.90
49765;DHT22;35657;51.204;-4.130;2024-01-06T09:54:23;8.20;99.90
49765;DHT22;35657;51.204;-4.130;2024-01-06T09:56:50;8.20;99.90
49765;DHT22;35657;51.204;-4.130;2024-01-06T09:59:16;8.20;99.90
49765;DHT22;35657;51.204;-4.130;2024-01-06T10:01:45;8.20;99.90
49765;DHT22;35657;51.204;-4.130;2024-01-06T10:04:10;8.20;99.90
49765;DHT22;35657;51.204;-4.130;2024-01-06T10:06:36;8.20;99.90
49765;DHT22;35657;51.204;-4.130;2024-01-06T10:09:02;8.20;99.90
49765;DHT22;35657;51.204;-4.130;2024-01-06T10:11:29;8.20;99.90
49765;DHT22;35657;51.204;-4.130;2024-01-06T10:13:55;8.20;99.90
49765;DHT22;35657;51.204;-4.130;2024-01-06T10:16:21;8.20;99.90
49765;DHT22;35657;51.204;-4.130;2024-01-06T10:18:47;8.20;99.90
49765;DHT22;35657;51.204;-4.130;2024-01-06T10:21:13;8.20;99.90
49765;DHT22;35657;51.204;-4.130;2024-01-06T10:23:42;8.30;99.90
49765;DHT22;35657;51.204;-4.130;2024-01-06T10:26:13;8.30;99.90
49765;DHT22;35657;51.204;-4.130;2024-01-06T10:28:39;8.20;99.90
49765;DHT22;35657;51.204;-4.130;2024-01-06T10:31:05;8.20;99.90
49765;DHT22;35657;51.204;-4.130;2024-01-06T10:33:32;8.20;99.90
49765;DHT22;35657;51.204;-4.130;2024-01-06T10:36:00;8.30;99.90
49765;DHT22;35657;51.204;-4.130;2024-01-06T10:38:26;8.30;99.90
49765;DHT22;35657;51.204;-4.130;2024-01-06T10:41:04;8.30;99.90
49765;DHT22;35657;51.204;-4.130;2024-01-06T10:43:33;8.30;99.90
49765;DHT22;35657;51.204;-4.130;2024-01-06T10:46:06;8.30;99.90
49765;DHT22;35657;51.204;-4.130;2024-01-06T10:48:37;8.40;99.90
49765;DHT22;35657;51.204;-4.130;2024-01-06T10:51:10;8.40;99.90
49765;DHT22;35657;51.204;-4.130;2024-01-06T10:53:36;8.40;99.90
49765;DHT22;35657;51.204;-4.130;2024-01-06T10:56:03;8.30;99.90
49765;DHT22;35657;51.204;-4.130;2024-01-06T10:58:30;8.30;99.90
49765;DHT22;35657;51.204;-4.130;2024-01-06T11:00:57;8.30;99.90
49765;DHT22;35657;51.204;-4.130;2024-01-06T11:03:24;8.30;99.90
49765;DHT22;35657;51.204;-4.130;2024-01-06T11:05:50;8.30;99.90
49765;DHT22;35657;51.204;-4.130;2024-01-06T11:08:18;8.30;99.90
49765;DHT22;35657;51.204;-4.130;2024-01-06T11:10:45;8.30;99.90
49765;DHT22;35657;51.204;-4.130;2024-01-06T11:13:13;8.30;99.90
49765;DHT22;35657;51.204;-4.130;2024-01-06T11:15:52;8.40;99.90
49765;DHT22;35657;51.204;-4.130;2024-01-06T11:18:37;8.50;99.90
49765;DHT22;35657;51.204;-4.130;2024-01-06T11:26:33;8.40;99.90
49765;DHT22;35657;51.204;-4.130;2024-01-06T11:29:00;8.40;99.90
49765;DHT22;35657;51.204;-4.130;2024-01-06T11:31:31;8.30;99.90
49765;DHT22;35657;51.204;-4.130;2024-01-06T11:33:57;8.30;99.90
49765;DHT22;35657;51.204;-4.130;2024-01-06T11:36:37;8.30;99.90
49765;DHT22;35657;51.204;-4.130;2024-01-06T11:39:02;8.30;99.90
49765;DHT22;35657;51.204;-4.130;2024-01-06T11:41:50;8.30;99.90
49765;DHT22;35657;51.204;-4.130;2024-01-06T11:44:20;8.30;99.90
49765;DHT22;35657;51.204;-4.130;2024-01-06T11:46:47;8.30;99.90
49765;DHT22;35657;51.204;-4.130;2024-01-06T11:49:15;8.30;99.90
49765;DHT22;35657;51.204;-4.130;2024-01-06T11:51:41;8.30;99.90
49765;DHT22;35657;51.204;-4.130;2024-01-06T11:54:09;8.30;99.90
49765;DHT22;35657;51.204;-4.130;2024-01-06T11:56:35;8.30;99.90
49765;DHT22;35657;51.204;-4.130;2024-01-06T11:59:01;8.30;99.90
49765;DHT22;35657;51.204;-4.130;2024-01-06T12:01:26;8.30;99.90
49765;DHT22;35657;51.204;-4.130;2024-01-06T12:03:55;8.30;99.90
49765;DHT22;35657;51.204;-4.130;2024-01-06T12:06:23;8.30;99.90
49765;DHT22;35657;51.204;-4.130;2024-01-06T12:08:49;8.30;99.90
49765;DHT22;35657;51.204;-4.130;2024-01-06T12:11:17;8.30;99.90
49765;DHT22;35657;51.204;-4.130;2024-01-06T12:13:46;8.40;99.90
49765;DHT22;35657;51.204;-4.130;2024-01-06T12:16:12;8.40;99.90
49765;DHT22;35657;51.204;-4.130;2024-01-06T12:18:37;8.30;99.90
49765;DHT22;35657;51.204;-4.130;2024-01-06T12:21:03;8.40;99.90
49765;DHT22;35657;51.204;-4.130;2024-01-06T12:23:29;8.40;99.90
49765;DHT22;35657;51.204;-4.130;2024-01-06T12:26:00;8.40;99.90
49765;DHT22;35657;51.204;-4.130;2024-01-06T12:28:27;8.40;99.90
49765;DHT22;35657;51.204;-4.130;2024-01-06T12:30:54;8.40;99.90
49765;DHT22;35657;51.204;-4.130;2024-01-06T12:33:20;8.30;99.90
49765;DHT22;35657;51.204;-4.130;2024-01-06T12:35:45;8.30;99.90
49765;DHT22;35657;51.204;-4.130;2024-01-06T12:38:11;8.30;99.90
49765;DHT22;35657;51.204;-4.130;2024-01-06T12:40:37;8.30;99.90
49765;DHT22;35657;51.204;-4.130;2024-01-06T12:43:04;8.30;99.90
49765;DHT22;35657;51.204;-4.130;2024-01-06T12:45:30;8.30;99.90
49765;DHT22;35657;51.204;-4.130;2024-01-06T12:47:56;8.40;99.90
49765;DHT22;35657;51.204;-4.130;2024-01-06T12:50:22;8.40;99.90
49765;DHT22;35657;51.204;-4.130;2024-01-06T12:52:48;8.40;99.90
49765;DHT22;35657;51.204;-4.130;2024-01-06T12:55:13;8.30;99.90
49765;DHT22;35657;51.204;-4.130;2024-01-06T12:57:42;8.40;99.90
49765;DHT22;35657;51.204;-4.130;2024-01-06T13:00:08;8.40;99.90
49765;DHT22;35657;51.204;-4.130;2024-01-06T13:02:37;8.40;99.90
49765;DHT22;35657;51.204;-4.130;2024-01-06T13:05:03;8.40;99.90
49765;DHT22;35657;51.204;-4.130;2024-01-06T13:07:29;8.40;99.90
49765;DHT22;35657;51.204;-4.130;2024-01-06T13:09:55;8.40;99.90
49765;DHT22;35657;51.204;-4.130;2024-01-06T13:12:21;8.40;99.90
49765;DHT22;35657;51.204;-4.130;2024-01-06T13:14:49;8.40;99.90
49765;DHT22;35657;51.204;-4.130;2024-01-06T13:17:16;8.40;99.90
49765;DHT22;35657;51.204;-4.130;2024-01-06T13:19:42;8.50;99.90
49765;DHT22;35657;51.204;-4.130;2024-01-06T13:22:08;8.50;99.90
49765;DHT22;35657;51.204;-4.130;2024-01-06T13:24:34;8.50;99.90
49765;DHT22;35657;51.204;-4.130;2024-01-06T13:26:59;8.50;99.90
49765;DHT22;35657;51.204;-4.130;2024-01-06T13:29:28;8.60;99.90
49765;DHT22;35657;51.204;-4.130;2024-01-06T13:31:54;8.50;99.90
49765;DHT22;35657;51.204;-4.130;2024-01-06T13:34:20;8.60;99.90
49765;DHT22;35657;51.204;-4.130;2024-01-06T13:36:46;8.50;99.90
49765;DHT22;35657;51.204;-4.130;2024-01-06T13:39:12;8.60;99.90
49765;DHT22;35657;51.204;-4.130;2024-01-06T13:41:46;8.60;99.90
49765;DHT22;35657;51.204;-4.130;2024-01-06T13:44:13;8.60;99.90
49765;DHT22;35657;51.204;-4.130;2024-01-06T13:46:39;8.60;99.90
49765;DHT22;35657;51.204;-4.130;2024-01-06T13:49:12;8.60;99.90
49765;DHT22;35657;51.204;-4.130;2024-01-06T13:51:39;8.60;99.90
49765;DHT22;35657;51.204;-4.130;2024-01-06T13:54:05;8.70;99.90
49765;DHT22;35657;51.204;-4.130;2024-01-06T13:56:31;8.70;99.90
49765;DHT22;35657;51.204;-4.130;2024-01-06T13:58:57;8.70;99.90
49765;DHT22;35657;51.204;-4.130;2024-01-06T14:01:23;8.80;99.90
49765;DHT22;35657;51.204;-4.130;2024-01-06T14:03:50;8.80;99.90
49765;DHT22;35657;51.204;-4.130;2024-01-06T14:06:16;8.80;99.90
49765;DHT22;35657;51.204;-4.130;2024-01-06T14:08:43;8.80;99.90
49765;DHT22;35657;51.204;-4.130;2024-01-06T14:11:09;8.80;99.90
49765;DHT22;35657;51.204;-4.130;2024-01-06T14:13:34;8.80;99.90
49765;DHT22;35657;51.204;-4.130;2024-01-06T14:16:00;8.70;99.90
49765;DHT22;35657;51.204;-4.130;2024-01-06T14:18:26;8.70;99.90
49765;DHT22;35657;51.204;-4.130;2024-01-06T14:20:53;8.70;99.90
49765;DHT22;35657;51.204;-4.130;2024-01-06T14:23:21;8.60;99.90
49765;DHT22;35657;51.204;-4.130;2024-01-06T14:25:47;8.60;99.90
49765;DHT22;35657;51.204;-4.130;2024-01-06T14:28:13;8.50;99.90
49765;DHT22;35657;51.204;-4.130;2024-01-06T14:30:38;8.60;99.90
49765;DHT22;35657;51.204;-4.130;2024-01-06T14:33:04;8.70;99.90
49765;DHT22;35657;51.204;-4.130;2024-01-06T14:35:30;8.80;99.90
49765;DHT22;35657;51.204;-4.130;2024-01-06T14:37:55;8.70;99.90
49765;DHT22;35657;51.204;-4.130;2024-01-06T14:40:22;8.70;99.90
49765;DHT22;35657;51.204;-4.130;2024-01-06T14:42:48;8.70;99.90
49765;DHT22;35657;51.204;-4.130;2024-01-06T14:45:14;8.70;99.90
49765;DHT22;35657;51.204;-4.130;2024-01-06T14:47:39;8.70;99.90
49765;DHT22;35657;51.204;-4.130;2024-01-06T14:50:06;8.70;99.90
49765;DHT22;35657;51.204;-4.130;2024-01-06T14:52:32;8.70;99.90
49765;DHT22;35657;51.204;-4.130;2024-01-06T14:54:57;8.70;99.90
49765;DHT22;35657;51.204;-4.130;2024-01-06T14:57:24;8.60;99.90
49765;DHT22;35657;51.204;-4.130;2024-01-06T14:59:50;8.70;99.90
49765;DHT22;35657;51.204;-4.130;2024-01-06T15:02:16;8.70;99.90
49765;DHT22;35657;51.204;-4.130;2024-01-06T15:04:41;8.70;99.90
49765;DHT22;35657;51.204;-4.130;2024-01-06T15:07:07;8.70;99.90
49765;DHT22;35657;51.204;-4.130;2024-01-06T15:09:33;8.60;99.90
49765;DHT22;35657;51.204;-4.130;2024-01-06T15:11:59;8.50;99.90
49765;DHT22;35657;51.204;-4.130;2024-01-06T15:14:24;8.50;99.90
49765;DHT22;35657;51.204;-4.130;2024-01-06T15:16:50;8.50;99.90
49765;DHT22;35657;51.204;-4.130;2024-01-06T15:19:16;8.40;99.90
49765;DHT22;35657;51.204;-4.130;2024-01-06T15:21:42;8.40;99.90
49765;DHT22;35657;51.204;-4.130;2024-01-06T15:24:08;8.40;99.90
49765;DHT22;35657;51.204;-4.130;2024-01-06T15:26:34;8.40;99.90
49765;DHT22;35657;51.204;-4.130;2024-01-06T15:29:00;8.50;99.90
49765;DHT22;35657;51.204;-4.130;2024-01-06T15:31:27;8.40;99.90